createdAt,value
2018-04-06T00:00:03.077Z,1017.33
2018-04-06T00:01:03.050Z,1017.31
2018-04-06T00:02:03.025Z,1017.28
2018-04-06T00:03:03.015Z,1017.31
2018-04-06T00:04:02.984Z,1017.25
2018-04-06T00:05:02.964Z,1017.26
2018-04-06T00:06:02.939Z,1017.27
2018-04-06T00:07:02.920Z,1017.32
2018-04-06T00:08:02.902Z,1017.31
2018-04-06T00:09:02.874Z,1017.35
2018-04-06T00:10:02.854Z,1017.35
2018-04-06T00:11:02.829Z,1017.35
2018-04-06T00:12:02.810Z,1017.34
2018-04-06T00:13:02.790Z,1017.33
2018-04-06T00:14:02.768Z,1017.34
2018-04-06T00:15:02.748Z,1017.35
2018-04-06T00:16:02.723Z,1017.33
2018-04-06T00:17:02.704Z,1017.38
2018-04-06T00:18:02.684Z,1017.38
2018-04-06T00:19:02.664Z,1017.45
2018-04-06T00:20:02.638Z,1017.44
2018-04-06T00:21:02.615Z,1017.43
2018-04-06T00:22:02.597Z,1017.40
2018-04-06T00:23:02.571Z,1017.38
2018-04-06T00:24:02.550Z,1017.39
2018-04-06T00:25:02.526Z,1017.37
2018-04-06T00:26:02.505Z,1017.38
2018-04-06T00:27:02.488Z,1017.42
2018-04-06T00:28:02.470Z,1017.43
2018-04-06T00:29:02.442Z,1017.43
2018-04-06T00:30:02.420Z,1017.45
2018-04-06T00:31:02.404Z,1017.46
2018-04-06T00:32:02.380Z,1017.44
2018-04-06T00:33:02.360Z,1017.41
2018-04-06T00:34:02.363Z,1017.41
2018-04-06T00:35:02.311Z,1017.41
2018-04-06T00:36:02.295Z,1017.45
2018-04-06T00:37:02.270Z,1017.44
2018-04-06T00:38:02.250Z,1017.45
2018-04-06T00:39:02.229Z,1017.45
2018-04-06T00:40:02.206Z,1017.47
2018-04-06T00:41:02.180Z,1017.45
2018-04-06T00:42:02.160Z,1017.44
2018-04-06T00:43:02.145Z,1017.48
2018-04-06T00:44:02.119Z,1017.45
2018-04-06T00:45:02.098Z,1017.44
2018-04-06T00:46:02.073Z,1017.44
2018-04-06T00:47:02.050Z,1017.45
2018-04-06T00:48:02.045Z,1017.46
2018-04-06T00:49:02.009Z,1017.48
2018-04-06T00:50:01.989Z,1017.46
2018-04-06T00:51:01.975Z,1017.45
2018-04-06T00:52:01.953Z,1017.50
2018-04-06T00:53:01.925Z,1017.46
2018-04-06T00:54:01.899Z,1017.48
2018-04-06T00:55:01.879Z,1017.51
2018-04-06T00:56:01.858Z,1017.45
2018-04-06T00:57:01.835Z,1017.46
2018-04-06T00:58:01.813Z,1017.47
2018-04-06T00:59:01.789Z,1017.49
2018-04-06T01:00:01.770Z,1017.51
2018-04-06T01:01:01.753Z,1017.53
2018-04-06T01:02:01.725Z,1017.48
2018-04-06T01:03:01.714Z,1017.46
2018-04-06T01:04:01.688Z,1017.47
2018-04-06T01:05:01.662Z,1017.50
2018-04-06T01:06:01.640Z,1017.48
2018-04-06T01:07:01.620Z,1017.48
2018-04-06T01:08:01.618Z,1017.47
2018-04-06T01:09:01.575Z,1017.44
2018-04-06T01:10:01.555Z,1017.39
2018-04-06T01:11:01.532Z,1017.41
2018-04-06T01:12:01.510Z,1017.37
2018-04-06T01:13:01.488Z,1017.37
2018-04-06T01:14:01.467Z,1017.35
2018-04-06T01:15:01.449Z,1017.37
2018-04-06T01:16:01.423Z,1017.36
2018-04-06T01:17:01.398Z,1017.37
2018-04-06T01:18:01.381Z,1017.33
2018-04-06T01:19:01.362Z,1017.32
2018-04-06T01:20:01.338Z,1017.34
2018-04-06T01:21:01.328Z,1017.31
2018-04-06T01:22:01.290Z,1017.36
2018-04-06T01:23:01.272Z,1017.33
2018-04-06T01:24:01.250Z,1017.36
2018-04-06T01:25:01.224Z,1017.32
2018-04-06T01:26:01.219Z,1017.30
2018-04-06T01:27:01.179Z,1017.33
2018-04-06T01:28:01.160Z,1017.32
2018-04-06T01:29:01.141Z,1017.37
2018-04-06T01:30:01.116Z,1017.27
2018-04-06T01:31:01.110Z,1017.28
2018-04-06T01:32:01.075Z,1017.30
2018-04-06T01:33:01.062Z,1017.27
2018-04-06T01:34:01.029Z,1017.28
2018-04-06T01:35:01.006Z,1017.30
2018-04-06T01:36:00.987Z,1017.27
2018-04-06T01:37:00.963Z,1017.27
2018-04-06T01:38:00.940Z,1017.27
2018-04-06T01:39:00.919Z,1017.22
2018-04-06T01:40:00.903Z,1017.26
2018-04-06T01:41:00.878Z,1017.25
2018-04-06T01:42:00.854Z,1017.27
2018-04-06T01:43:00.838Z,1017.26
2018-04-06T01:44:00.814Z,1017.24
2018-04-06T01:45:00.792Z,1017.24
2018-04-06T01:46:00.767Z,1017.21
2018-04-06T01:47:00.748Z,1017.18
2018-04-06T01:48:00.726Z,1017.13
2018-04-06T01:49:00.700Z,1017.17
2018-04-06T01:50:00.680Z,1017.17
2018-04-06T01:51:00.660Z,1017.11
2018-04-06T01:52:00.640Z,1017.06
2018-04-06T01:53:00.617Z,1017.08
2018-04-06T01:54:00.593Z,1017.08
2018-04-06T01:55:00.568Z,1017.05
2018-04-06T01:56:00.549Z,1017.06
2018-04-06T01:57:00.532Z,1017.06
2018-04-06T01:58:00.504Z,1017.06
2018-04-06T01:59:00.482Z,1017.02
2018-04-06T02:00:00.543Z,1017.03
2018-04-06T02:01:00.437Z,1017.05
2018-04-06T02:02:00.417Z,1017.06
2018-04-06T02:03:00.414Z,1017.09
2018-04-06T02:04:00.379Z,1017.11
2018-04-06T02:05:00.349Z,1017.10
2018-04-06T02:06:00.334Z,1017.16
2018-04-06T02:07:00.308Z,1017.16
2018-04-06T02:08:00.289Z,1017.13
2018-04-06T02:09:00.263Z,1017.15
2018-04-06T02:10:00.242Z,1017.12
2018-04-06T02:11:00.223Z,1017.15
2018-04-06T02:12:00.196Z,1017.14
2018-04-06T02:13:00.174Z,1017.15
2018-04-06T02:14:00.159Z,1017.12
2018-04-06T02:15:00.133Z,1017.18
2018-04-06T02:16:00.110Z,1017.16
2018-04-06T02:17:00.089Z,1017.16
2018-04-06T02:18:00.065Z,1017.15
2018-04-06T02:19:00.046Z,1017.15
2018-04-06T02:20:00.022Z,1017.14
2018-04-06T02:21:00.002Z,1017.13
2018-04-06T02:21:59.980Z,1017.11
2018-04-06T02:22:59.955Z,1017.10
2018-04-06T02:23:59.945Z,1017.11
2018-04-06T02:24:59.918Z,1017.10
2018-04-06T02:25:59.900Z,1017.10
2018-04-06T02:26:59.871Z,1017.09
2018-04-06T02:27:59.848Z,1017.08
2018-04-06T02:28:59.827Z,1017.11
2018-04-06T02:29:59.804Z,1017.10
2018-04-06T02:30:59.787Z,1017.11
2018-04-06T02:31:59.766Z,1017.09
2018-04-06T02:32:59.744Z,1017.12
2018-04-06T02:33:59.714Z,1017.08
2018-04-06T02:34:59.696Z,1017.08
2018-04-06T02:35:59.673Z,1017.10
2018-04-06T02:36:59.649Z,1017.10
2018-04-06T02:37:59.633Z,1017.10
2018-04-06T02:38:59.609Z,1017.11
2018-04-06T02:39:59.586Z,1017.10
2018-04-06T02:40:59.563Z,1017.09
2018-04-06T02:41:59.541Z,1017.09
2018-04-06T02:42:59.518Z,1017.09
2018-04-06T02:43:59.503Z,1017.08
2018-04-06T02:44:59.488Z,1017.09
2018-04-06T02:45:59.455Z,1017.13
2018-04-06T02:46:59.435Z,1017.09
2018-04-06T02:47:59.410Z,1017.07
2018-04-06T02:48:59.398Z,1017.07
2018-04-06T02:49:59.365Z,1017.08
2018-04-06T02:50:59.352Z,1017.10
2018-04-06T02:51:59.325Z,1017.07
2018-04-06T02:52:59.299Z,1017.08
2018-04-06T02:53:59.282Z,1017.09
2018-04-06T02:54:59.260Z,1017.05
2018-04-06T02:55:59.239Z,1017.06
2018-04-06T02:56:59.213Z,1017.10
2018-04-06T02:57:59.190Z,1017.05
2018-04-06T02:58:59.170Z,1017.11
2018-04-06T02:59:59.152Z,1017.12
2018-04-06T03:00:59.123Z,1017.15
2018-04-06T03:01:59.104Z,1017.12
2018-04-06T03:02:59.080Z,1017.14
2018-04-06T03:03:59.070Z,1017.16
2018-04-06T03:04:59.040Z,1017.11
2018-04-06T03:05:59.016Z,1017.17
2018-04-06T03:06:58.996Z,1017.19
2018-04-06T03:07:58.971Z,1017.18
2018-04-06T03:08:58.949Z,1017.19
2018-04-06T03:09:58.929Z,1017.23
2018-04-06T03:10:58.907Z,1017.22
2018-04-06T03:11:58.882Z,1017.20
2018-04-06T03:12:58.860Z,1017.22
2018-04-06T03:13:58.842Z,1017.24
2018-04-06T03:14:58.833Z,1017.25
2018-04-06T03:15:58.794Z,1017.23
2018-04-06T03:16:58.770Z,1017.29
2018-04-06T03:17:58.760Z,1017.26
2018-04-06T03:18:58.729Z,1017.31
2018-04-06T03:19:58.707Z,1017.29
2018-04-06T03:20:58.686Z,1017.30
2018-04-06T03:21:58.659Z,1017.32
2018-04-06T03:22:58.640Z,1017.33
2018-04-06T03:23:58.623Z,1017.31
2018-04-06T03:24:58.597Z,1017.34
2018-04-06T03:25:58.580Z,1017.36
2018-04-06T03:26:58.560Z,1017.35
2018-04-06T03:27:58.534Z,1017.37
2018-04-06T03:28:58.509Z,1017.38
2018-04-06T03:29:58.483Z,1017.37
2018-04-06T03:30:58.469Z,1017.38
2018-04-06T03:31:58.443Z,1017.35
2018-04-06T03:32:58.420Z,1017.33
2018-04-06T03:33:58.398Z,1017.35
2018-04-06T03:34:58.380Z,1017.34
2018-04-06T03:35:58.359Z,1017.37
2018-04-06T03:36:58.330Z,1017.38
2018-04-06T03:37:58.311Z,1017.37
2018-04-06T03:38:58.287Z,1017.38
2018-04-06T03:39:58.263Z,1017.38
2018-04-06T03:40:58.239Z,1017.38
2018-04-06T03:41:58.220Z,1017.38
2018-04-06T03:42:58.199Z,1017.36
2018-04-06T03:43:58.176Z,1017.34
2018-04-06T03:44:58.153Z,1017.33
2018-04-06T03:45:58.137Z,1017.31
2018-04-06T03:46:58.111Z,1017.30
2018-04-06T03:47:58.088Z,1017.34
2018-04-06T03:48:58.064Z,1017.30
2018-04-06T03:49:58.040Z,1017.27
2018-04-06T03:50:58.026Z,1017.28
2018-04-06T03:51:58.004Z,1017.31
2018-04-06T03:52:57.978Z,1017.28
2018-04-06T03:53:57.953Z,1017.27
2018-04-06T03:54:57.930Z,1017.29
2018-04-06T03:55:57.909Z,1017.28
2018-04-06T03:56:57.888Z,1017.31
2018-04-06T03:57:57.865Z,1017.33
2018-04-06T03:58:57.842Z,1017.35
2018-04-06T03:59:57.819Z,1017.35
2018-04-06T04:00:57.797Z,1017.31
2018-04-06T04:01:57.779Z,1017.27
2018-04-06T04:02:57.755Z,1017.29
2018-04-06T04:03:57.735Z,1017.29
2018-04-06T04:04:57.709Z,1017.25
2018-04-06T04:05:57.691Z,1017.24
2018-04-06T04:06:57.672Z,1017.24
2018-04-06T04:07:57.643Z,1017.22
2018-04-06T04:08:57.620Z,1017.22
2018-04-06T04:09:57.598Z,1017.23
2018-04-06T04:10:57.585Z,1017.20
2018-04-06T04:11:57.624Z,1017.20
2018-04-06T04:12:57.534Z,1017.16
2018-04-06T04:13:57.520Z,1017.20
2018-04-06T04:14:57.493Z,1017.22
2018-04-06T04:15:57.473Z,1017.23
2018-04-06T04:16:57.449Z,1017.28
2018-04-06T04:17:57.433Z,1017.24
2018-04-06T04:18:57.401Z,1017.27
2018-04-06T04:19:57.376Z,1017.27
2018-04-06T04:20:57.358Z,1017.22
2018-04-06T04:21:57.337Z,1017.23
2018-04-06T04:22:57.308Z,1017.19
2018-04-06T04:23:57.288Z,1017.18
2018-04-06T04:24:57.266Z,1017.13
2018-04-06T04:25:57.249Z,1017.18
2018-04-06T04:26:57.241Z,1017.15
2018-04-06T04:27:57.225Z,1017.16
2018-04-06T04:28:57.173Z,1017.14
2018-04-06T04:29:57.156Z,1017.16
2018-04-06T04:30:57.129Z,1017.14
2018-04-06T04:31:57.109Z,1017.11
2018-04-06T04:32:57.094Z,1017.14
2018-04-06T04:33:57.065Z,1017.12
2018-04-06T04:34:57.042Z,1017.11
2018-04-06T04:35:57.021Z,1017.12
2018-04-06T04:36:57.000Z,1017.13
2018-04-06T04:37:56.984Z,1017.10
2018-04-06T04:38:56.960Z,1017.15
2018-04-06T04:39:56.954Z,1017.14
2018-04-06T04:40:56.909Z,1017.18
2018-04-06T04:41:56.889Z,1017.17
2018-04-06T04:42:56.867Z,1017.21
2018-04-06T04:43:56.840Z,1017.22
2018-04-06T04:44:56.818Z,1017.23
2018-04-06T04:45:56.796Z,1017.25
2018-04-06T04:46:56.779Z,1017.28
2018-04-06T04:47:56.752Z,1017.28
2018-04-06T04:48:56.730Z,1017.28
2018-04-06T04:49:56.710Z,1017.31
2018-04-06T04:50:56.683Z,1017.33
2018-04-06T04:51:56.662Z,1017.33
2018-04-06T04:52:56.644Z,1017.32
2018-04-06T04:53:56.619Z,1017.29
2018-04-06T04:54:56.596Z,1017.28
2018-04-06T04:55:56.575Z,1017.26
2018-04-06T04:56:56.554Z,1017.25
2018-04-06T04:57:56.527Z,1017.24
2018-04-06T04:58:56.509Z,1017.23
2018-04-06T04:59:56.485Z,1017.25
2018-04-06T05:00:56.466Z,1017.22
2018-04-06T05:01:56.441Z,1017.22
2018-04-06T05:02:56.417Z,1017.18
2018-04-06T05:03:56.399Z,1017.20
2018-04-06T05:04:56.377Z,1017.18
2018-04-06T05:05:56.350Z,1017.18
2018-04-06T05:06:56.329Z,1017.23
2018-04-06T05:07:56.305Z,1017.22
2018-04-06T05:08:56.285Z,1017.21
2018-04-06T05:09:56.267Z,1017.23
2018-04-06T05:10:56.239Z,1017.27
2018-04-06T05:11:56.218Z,1017.30
2018-04-06T05:12:56.194Z,1017.30
2018-04-06T05:13:56.170Z,1017.29
2018-04-06T05:14:56.152Z,1017.27
2018-04-06T05:15:56.126Z,1017.24
2018-04-06T05:16:56.106Z,1017.21
2018-04-06T05:17:56.083Z,1017.21
2018-04-06T05:18:56.060Z,1017.24
2018-04-06T05:19:56.038Z,1017.18
2018-04-06T05:20:56.017Z,1017.23
2018-04-06T05:21:55.989Z,1017.23
2018-04-06T05:22:55.973Z,1017.25
2018-04-06T05:23:55.946Z,1017.22
2018-04-06T05:24:55.926Z,1017.25
2018-04-06T05:25:55.903Z,1017.24
2018-04-06T05:26:55.880Z,1017.21
2018-04-06T05:27:55.864Z,1017.21
2018-04-06T05:28:55.836Z,1017.20
2018-04-06T05:29:55.815Z,1017.18
2018-04-06T05:30:55.790Z,1017.19
2018-04-06T05:31:55.773Z,1017.17
2018-04-06T05:32:55.753Z,1017.15
2018-04-06T05:33:55.730Z,1017.19
2018-04-06T05:34:55.710Z,1017.15
2018-04-06T05:35:55.687Z,1017.15
2018-04-06T05:36:55.656Z,1017.16
2018-04-06T05:37:55.639Z,1017.19
2018-04-06T05:38:55.619Z,1017.18
2018-04-06T05:39:55.592Z,1017.19
2018-04-06T05:40:55.568Z,1017.21
2018-04-06T05:41:55.545Z,1017.19
2018-04-06T05:42:55.527Z,1017.22
2018-04-06T05:43:55.501Z,1017.16
2018-04-06T05:44:55.481Z,1017.18
2018-04-06T05:45:55.456Z,1017.21
2018-04-06T05:46:55.434Z,1017.17
2018-04-06T05:47:55.414Z,1017.18
2018-04-06T05:48:55.389Z,1017.17
2018-04-06T05:49:55.370Z,1017.14
2018-04-06T05:50:55.346Z,1017.19
2018-04-06T05:51:55.329Z,1017.19
2018-04-06T05:52:55.297Z,1017.19
2018-04-06T05:53:55.279Z,1017.21
2018-04-06T05:54:55.256Z,1017.29
2018-04-06T05:55:55.239Z,1017.28
2018-04-06T05:56:55.209Z,1017.32
2018-04-06T05:57:55.189Z,1017.28
2018-04-06T05:58:55.169Z,1017.29
2018-04-06T05:59:55.149Z,1017.28
2018-04-06T06:00:55.124Z,1017.27
2018-04-06T06:01:55.102Z,1017.26
2018-04-06T06:02:55.084Z,1017.28
2018-04-06T06:03:55.070Z,1017.32
2018-04-06T06:04:55.042Z,1017.31
2018-04-06T06:05:55.012Z,1017.36
2018-04-06T06:06:54.999Z,1017.38
2018-04-06T06:07:54.965Z,1017.38
2018-04-06T06:08:54.941Z,1017.41
2018-04-06T06:09:54.926Z,1017.37
2018-04-06T06:10:54.899Z,1017.38
2018-04-06T06:11:54.877Z,1017.36
2018-04-06T06:12:54.855Z,1017.36
2018-04-06T06:13:54.831Z,1017.36
2018-04-06T06:14:54.809Z,1017.38
2018-04-06T06:15:54.791Z,1017.35
2018-04-06T06:16:54.767Z,1017.36
2018-04-06T06:17:54.751Z,1017.35
2018-04-06T06:18:54.719Z,1017.40
2018-04-06T06:19:54.703Z,1017.39
2018-04-06T06:20:54.678Z,1017.37
2018-04-06T06:21:54.654Z,1017.40
2018-04-06T06:22:54.633Z,1017.42
2018-04-06T06:23:54.616Z,1017.44
2018-04-06T06:24:54.589Z,1017.40
2018-04-06T06:25:54.569Z,1017.41
2018-04-06T06:26:54.545Z,1017.42
2018-04-06T06:27:54.522Z,1017.43
2018-04-06T06:28:54.499Z,1017.41
2018-04-06T06:29:54.479Z,1017.44
2018-04-06T06:30:54.459Z,1017.42
2018-04-06T06:31:54.435Z,1017.41
2018-04-06T06:32:54.413Z,1017.44
2018-04-06T06:33:54.395Z,1017.40
2018-04-06T06:34:54.379Z,1017.41
2018-04-06T06:35:54.349Z,1017.38
2018-04-06T06:36:54.355Z,1017.42
2018-04-06T06:37:54.301Z,1017.40
2018-04-06T06:38:54.289Z,1017.39
2018-04-06T06:39:54.264Z,1017.40
2018-04-06T06:40:54.237Z,1017.36
2018-04-06T06:41:54.215Z,1017.36
2018-04-06T06:42:54.217Z,1017.38
2018-04-06T06:43:54.176Z,1017.38
2018-04-06T06:44:54.167Z,1017.42
2018-04-06T06:45:54.128Z,1017.39
2018-04-06T06:46:54.103Z,1017.38
2018-04-06T06:47:54.087Z,1017.34
2018-04-06T06:48:54.063Z,1017.37
2018-04-06T06:49:54.039Z,1017.40
2018-04-06T06:50:54.020Z,1017.37
2018-04-06T06:51:54.002Z,1017.34
2018-04-06T06:52:53.975Z,1017.31
2018-04-06T06:53:53.949Z,1017.24
2018-04-06T06:54:53.929Z,1017.21
2018-04-06T06:55:53.910Z,1017.18
2018-04-06T06:56:53.894Z,1017.17
2018-04-06T06:57:53.863Z,1017.15
2018-04-06T06:58:53.842Z,1017.11
2018-04-06T06:59:53.826Z,1017.12
2018-04-06T07:00:53.804Z,1017.09
2018-04-06T07:01:53.776Z,1017.09
2018-04-06T07:02:53.758Z,1017.09
2018-04-06T07:03:53.738Z,1017.12
2018-04-06T07:04:53.714Z,1017.11
2018-04-06T07:05:53.690Z,1017.14
2018-04-06T07:06:53.666Z,1017.11
2018-04-06T07:07:53.658Z,1017.08
2018-04-06T07:08:53.626Z,1017.06
2018-04-06T07:09:53.607Z,1017.06
2018-04-06T07:10:53.587Z,1017.03
2018-04-06T07:11:53.560Z,1017.01
2018-04-06T07:12:53.537Z,1017.01
2018-04-06T07:13:53.515Z,1017.00
2018-04-06T07:14:53.496Z,1017.00
2018-04-06T07:15:53.475Z,1016.96
2018-04-06T07:16:53.454Z,1016.94
2018-04-06T07:17:53.429Z,1016.99
2018-04-06T07:18:53.409Z,1016.93
2018-04-06T07:19:53.391Z,1016.94
2018-04-06T07:20:53.366Z,1016.93
2018-04-06T07:21:53.343Z,1016.96
2018-04-06T07:22:53.323Z,1016.95
2018-04-06T07:23:53.299Z,1016.97
2018-04-06T07:24:53.279Z,1016.96
2018-04-06T07:25:53.262Z,1016.94
2018-04-06T07:26:53.237Z,1016.95
2018-04-06T07:27:53.222Z,1016.98
2018-04-06T07:28:53.195Z,1016.97
2018-04-06T07:29:53.169Z,1016.93
2018-04-06T07:30:53.147Z,1016.90
2018-04-06T07:31:53.126Z,1016.91
2018-04-06T07:32:53.104Z,1016.87
2018-04-06T07:33:53.088Z,1016.83
2018-04-06T07:34:53.064Z,1016.80
2018-04-06T07:35:53.039Z,1016.76
2018-04-06T07:36:53.020Z,1016.77
2018-04-06T07:37:53.008Z,1016.76
2018-04-06T07:38:52.985Z,1016.76
2018-04-06T07:39:52.960Z,1016.75
2018-04-06T07:40:52.935Z,1016.72
2018-04-06T07:41:52.913Z,1016.74
2018-04-06T07:42:52.897Z,1016.77
2018-04-06T07:43:52.873Z,1016.77
2018-04-06T07:44:52.849Z,1016.75
2018-04-06T07:45:52.829Z,1016.72
2018-04-06T07:46:52.809Z,1016.73
2018-04-06T07:47:52.796Z,1016.72
2018-04-06T07:48:52.769Z,1016.79
2018-04-06T07:49:52.747Z,1016.78
2018-04-06T07:50:52.727Z,1016.78
2018-04-06T07:51:52.701Z,1016.82
2018-04-06T07:52:52.682Z,1016.82
2018-04-06T07:53:52.661Z,1016.82
2018-04-06T07:54:52.640Z,1016.87
2018-04-06T07:55:52.620Z,1016.88
2018-04-06T07:56:52.597Z,1016.83
2018-04-06T07:57:52.580Z,1016.82
2018-04-06T07:58:52.557Z,1016.80
2018-04-06T07:59:52.543Z,1016.80
2018-04-06T08:00:52.513Z,1016.82
2018-04-06T08:01:52.492Z,1016.84
2018-04-06T08:02:52.472Z,1016.86
2018-04-06T08:03:52.452Z,1016.87
2018-04-06T08:04:52.429Z,1016.83
2018-04-06T08:05:52.406Z,1016.80
2018-04-06T08:06:52.389Z,1016.79
2018-04-06T08:07:52.370Z,1016.77
2018-04-06T08:08:52.349Z,1016.81
2018-04-06T08:09:52.328Z,1016.84
2018-04-06T08:10:52.305Z,1016.88
2018-04-06T08:11:52.294Z,1016.87
2018-04-06T08:12:52.268Z,1016.87
2018-04-06T08:13:52.239Z,1016.85
2018-04-06T08:14:52.230Z,1016.89
2018-04-06T08:15:52.203Z,1016.94
2018-04-06T08:16:52.191Z,1016.95
2018-04-06T08:17:52.159Z,1016.94
2018-04-06T08:18:52.140Z,1016.95
2018-04-06T08:19:52.131Z,1016.90
2018-04-06T08:20:52.102Z,1016.90
2018-04-06T08:21:52.080Z,1016.87
2018-04-06T08:22:52.059Z,1016.86
2018-04-06T08:23:52.045Z,1016.85
2018-04-06T08:24:52.034Z,1016.89
2018-04-06T08:25:51.996Z,1016.88
2018-04-06T08:26:51.978Z,1016.84
2018-04-06T08:27:51.956Z,1016.86
2018-04-06T08:28:51.939Z,1016.87
2018-04-06T08:29:51.916Z,1016.83
2018-04-06T08:30:51.893Z,1016.80
2018-04-06T08:31:51.876Z,1016.80
2018-04-06T08:32:51.854Z,1016.84
2018-04-06T08:33:51.839Z,1016.87
2018-04-06T08:34:51.869Z,1016.85
2018-04-06T08:35:51.796Z,1016.87
2018-04-06T08:36:51.772Z,1016.88
2018-04-06T08:37:51.754Z,1016.89
2018-04-06T08:38:51.742Z,1016.89
2018-04-06T08:39:51.710Z,1016.88
2018-04-06T08:40:51.696Z,1016.91
2018-04-06T08:41:51.686Z,1016.85
2018-04-06T08:42:51.658Z,1016.89
2018-04-06T08:43:51.631Z,1016.84
2018-04-06T08:44:51.610Z,1016.79
2018-04-06T08:45:51.594Z,1016.79
2018-04-06T08:46:51.568Z,1016.79
2018-04-06T08:47:51.549Z,1016.82
2018-04-06T08:48:51.530Z,1016.86
2018-04-06T08:49:51.509Z,1016.89
2018-04-06T08:50:51.489Z,1016.93
2018-04-06T08:51:51.470Z,1016.86
2018-04-06T08:52:51.453Z,1016.85
2018-04-06T08:53:51.440Z,1016.85
2018-04-06T08:54:51.468Z,1016.81
2018-04-06T08:55:51.410Z,1016.81
2018-04-06T08:56:51.382Z,1016.83
2018-04-06T08:57:51.350Z,1016.81
2018-04-06T08:58:51.330Z,1016.86
2018-04-06T08:59:51.316Z,1016.82
2018-04-06T09:00:51.297Z,1016.86
2018-04-06T09:01:51.276Z,1016.82
2018-04-06T09:02:51.252Z,1016.83
2018-04-06T09:03:51.235Z,1016.78
2018-04-06T09:04:51.216Z,1016.84
2018-04-06T09:05:51.195Z,1016.74
2018-04-06T09:06:51.179Z,1016.70
2018-04-06T09:07:51.161Z,1016.68
2018-04-06T09:08:51.138Z,1016.69
2018-04-06T09:09:51.116Z,1016.64
2018-04-06T09:10:51.104Z,1016.62
2018-04-06T09:11:51.102Z,1016.64
2018-04-06T09:12:51.057Z,1016.65
2018-04-06T09:13:51.051Z,1016.62
2018-04-06T09:14:51.020Z,1016.61
2018-04-06T09:15:51.000Z,1016.62
2018-04-06T09:16:50.977Z,1016.62
2018-04-06T09:17:50.957Z,1016.59
2018-04-06T09:18:50.940Z,1016.57
2018-04-06T09:19:50.920Z,1016.58
2018-04-06T09:20:50.901Z,1016.56
2018-04-06T09:21:50.892Z,1016.59
2018-04-06T09:22:50.865Z,1016.58
2018-04-06T09:23:50.858Z,1016.54
2018-04-06T09:24:50.823Z,1016.56
2018-04-06T09:25:50.812Z,1016.54
2018-04-06T09:26:50.783Z,1016.51
2018-04-06T09:27:50.769Z,1016.52
2018-04-06T09:28:50.745Z,1016.49
2018-04-06T09:29:50.727Z,1016.51
2018-04-06T09:30:50.711Z,1016.50
2018-04-06T09:31:50.692Z,1016.50
2018-04-06T09:32:50.669Z,1016.52
2018-04-06T09:33:50.650Z,1016.54
2018-04-06T09:34:50.635Z,1016.45
2018-04-06T09:35:50.624Z,1016.51
2018-04-06T09:36:50.589Z,1016.53
2018-04-06T09:37:50.587Z,1016.48
2018-04-06T09:38:50.554Z,1016.53
2018-04-06T09:39:50.535Z,1016.52
2018-04-06T09:40:50.515Z,1016.52
2018-04-06T09:41:50.503Z,1016.53
2018-04-06T09:42:50.480Z,1016.48
2018-04-06T09:43:50.462Z,1016.42
2018-04-06T09:44:50.442Z,1016.41
2018-04-06T09:45:50.420Z,1016.40
2018-04-06T09:46:50.404Z,1016.33
2018-04-06T09:47:50.391Z,1016.34
2018-04-06T09:48:50.366Z,1016.36
2018-04-06T09:49:50.350Z,1016.28
2018-04-06T09:50:50.329Z,1016.29
2018-04-06T09:51:50.314Z,1016.28
2018-04-06T09:52:50.286Z,1016.27
2018-04-06T09:53:50.311Z,1016.27
2018-04-06T09:54:50.258Z,1016.22
2018-04-06T09:55:50.248Z,1016.20
2018-04-06T09:56:50.219Z,1016.20
2018-04-06T09:57:50.199Z,1016.20
2018-04-06T09:58:50.175Z,1016.24
2018-04-06T09:59:50.160Z,1016.21
2018-04-06T10:00:50.144Z,1016.20
2018-04-06T10:01:50.121Z,1016.22
2018-04-06T10:02:50.145Z,1016.20
2018-04-06T10:03:50.084Z,1016.13
2018-04-06T10:04:50.060Z,1016.15
2018-04-06T10:05:50.046Z,1016.09
2018-04-06T10:06:50.024Z,1016.05
2018-04-06T10:07:50.012Z,1016.04
2018-04-06T10:08:49.987Z,1016.06
2018-04-06T10:09:49.969Z,1016.07
2018-04-06T10:10:49.968Z,1016.02
2018-04-06T10:11:49.930Z,1015.95
2018-04-06T10:12:49.918Z,1015.96
2018-04-06T10:13:49.897Z,1015.97
2018-04-06T10:14:49.881Z,1015.97
2018-04-06T10:15:49.858Z,1015.94
2018-04-06T10:16:49.840Z,1015.94
2018-04-06T10:17:49.823Z,1015.93
2018-04-06T10:18:49.806Z,1015.90
2018-04-06T10:19:49.786Z,1015.92
2018-04-06T10:20:49.764Z,1015.86
2018-04-06T10:21:49.795Z,1015.88
2018-04-06T10:22:49.731Z,1015.92
2018-04-06T10:23:49.708Z,1015.96
2018-04-06T10:24:49.695Z,1015.97
2018-04-06T10:25:49.682Z,1015.93
2018-04-06T10:26:49.655Z,1015.95
2018-04-06T10:27:49.638Z,1015.96
2018-04-06T10:28:49.617Z,1015.94
2018-04-06T10:29:49.607Z,1015.91
2018-04-06T10:30:49.580Z,1015.92
2018-04-06T10:31:49.568Z,1015.92
2018-04-06T10:32:49.544Z,1015.93
2018-04-06T10:33:49.529Z,1015.94
2018-04-06T10:34:49.509Z,1015.93
2018-04-06T10:35:49.489Z,1015.87
2018-04-06T10:36:49.472Z,1015.89
2018-04-06T10:37:49.461Z,1015.83
2018-04-06T10:38:49.463Z,1015.83
2018-04-06T10:39:49.418Z,1015.76
2018-04-06T10:40:49.401Z,1015.76
2018-04-06T10:41:49.385Z,1015.72
2018-04-06T10:42:49.361Z,1015.70
2018-04-06T10:43:49.660Z,1015.66
2018-04-06T10:44:49.325Z,1015.64
2018-04-06T10:45:49.311Z,1015.66
2018-04-06T10:46:49.293Z,1015.66
2018-04-06T10:47:49.271Z,1015.68
2018-04-06T10:48:49.250Z,1015.65
2018-04-06T10:49:49.234Z,1015.67
2018-04-06T10:50:49.226Z,1015.65
2018-04-06T10:51:49.194Z,1015.63
2018-04-06T10:52:49.179Z,1015.65
2018-04-06T10:53:49.171Z,1015.64
2018-04-06T10:54:49.140Z,1015.68
2018-04-06T10:55:49.129Z,1015.67
2018-04-06T10:56:49.109Z,1015.69
2018-04-06T10:57:49.096Z,1015.66
2018-04-06T10:58:49.066Z,1015.63
2018-04-06T10:59:49.048Z,1015.60
2018-04-06T11:00:49.029Z,1015.56
2018-04-06T11:01:49.014Z,1015.55
2018-04-06T11:02:49.000Z,1015.57
2018-04-06T11:03:48.978Z,1015.51
2018-04-06T11:04:48.969Z,1015.49
2018-04-06T11:05:48.939Z,1015.50
2018-04-06T11:06:48.925Z,1015.47
2018-04-06T11:07:48.909Z,1015.50
2018-04-06T11:08:48.891Z,1015.52
2018-04-06T11:09:48.869Z,1015.49
2018-04-06T11:10:48.848Z,1015.47
2018-04-06T11:11:48.830Z,1015.43
2018-04-06T11:12:48.818Z,1015.49
2018-04-06T11:13:48.800Z,1015.40
2018-04-06T11:14:48.782Z,1015.40
2018-04-06T11:15:48.766Z,1015.39
2018-04-06T11:16:48.744Z,1015.46
2018-04-06T11:17:48.723Z,1015.49
2018-04-06T11:18:48.710Z,1015.45
2018-04-06T11:19:48.692Z,1015.41
2018-04-06T11:20:48.689Z,1015.37
2018-04-06T11:21:48.657Z,1015.36
2018-04-06T11:22:48.648Z,1015.37
2018-04-06T11:23:48.617Z,1015.33
2018-04-06T11:24:48.597Z,1015.32
2018-04-06T11:25:48.587Z,1015.31
2018-04-06T11:26:48.563Z,1015.31
2018-04-06T11:27:48.547Z,1015.29
2018-04-06T11:28:48.529Z,1015.28
2018-04-06T11:29:48.512Z,1015.27
2018-04-06T11:30:48.489Z,1015.25
2018-04-06T11:31:48.474Z,1015.25
2018-04-06T11:32:48.456Z,1015.18
2018-04-06T11:33:48.440Z,1015.17
2018-04-06T11:34:48.422Z,1015.23
2018-04-06T11:35:48.405Z,1015.17
2018-04-06T11:36:48.393Z,1015.16
2018-04-06T11:37:48.417Z,1015.16
2018-04-06T11:38:48.357Z,1015.14
2018-04-06T11:39:48.330Z,1015.12
2018-04-06T11:40:48.313Z,1015.06
2018-04-06T11:41:48.295Z,1015.04
2018-04-06T11:42:48.285Z,1015.06
2018-04-06T11:43:48.263Z,1015.04
2018-04-06T11:44:48.241Z,1015.02
2018-04-06T11:45:48.222Z,1014.98
2018-04-06T11:46:48.208Z,1014.99
2018-04-06T11:47:48.188Z,1014.94
2018-04-06T11:48:48.169Z,1014.94
2018-04-06T11:49:48.155Z,1014.91
2018-04-06T11:50:48.132Z,1014.88
2018-04-06T11:51:48.123Z,1014.87
2018-04-06T11:52:48.105Z,1014.87
2018-04-06T11:53:48.087Z,1014.85
2018-04-06T11:54:48.064Z,1014.82
2018-04-06T11:55:48.059Z,1014.85
2018-04-06T11:56:48.027Z,1014.84
2018-04-06T11:57:48.012Z,1014.92
2018-04-06T11:58:47.993Z,1014.81
2018-04-06T11:59:48.014Z,1014.80
2018-04-06T12:00:47.959Z,1014.80
2018-04-06T12:01:47.940Z,1014.81
2018-04-06T12:02:47.919Z,1014.81
2018-04-06T12:03:47.907Z,1014.75
2018-04-06T12:04:47.889Z,1014.74